Leland, IL (60531)

06:22 AM CST on Ιανουάριος 27, 2015 (GMT -0600)
Weather at Chuck and Pats House | Change Station
CLOSE
Current Station
Personal Weather Stations
Location: Serena, IL
Elevation: 633 ft
Nearby Weather Stations

Elev 633 ft 41.51 °N, 88.74 °W | Updated 1 minute ago

Νεφοσκεπής
Νεφοσκεπής
28.4 ° F
Feels Like 28 ° F
N
3.0
Ανεμος Μεταβλητός Ανεμος from Βόρειος
Gusts 3.0 mph

Σήμερα
High -- | Low -- ° F
--% Chance of Precip.
Yesterday
High -- | Low -- ° F
Precip. -- in
7:11 AM 5:04 PM
Πρώτο τέταρτο, 53% visible
Ατμοσφαιρική Πίεση 30.04 in
Ορατότητα 4.0 Μίλια
Σύννεφα Νεφελώδης 1600 ft
Νεφοσκεπής 3800 ft
Δείκτης Ψυχρότητας 28 ° F
Σημείο Δρόσου 27 ° F
Υγρασία 96%
Rainfall 0.00 in
Snow Depth Not available.
Υπεριώδης ακτινοβολία (UV) 0 out of 12
Pollen .10 out of 12
Air Quality Not available.
Flu Activity Not available.
SPECI KARR 271214Z AUTO 36005KT 4SM HZ BKN016 OVC038 M02/M05 A3004 RMK AO2 T10221050

More Conditions Fewer Conditions

Ατμοσφαιρική Πίεση 30.04 in
Ορατότητα 4.0 Μίλια
Σύννεφα Νεφελώδης 1600 ft
Νεφοσκεπής 3800 ft
Δείκτης Ψυχρότητας 28 ° F
Σημείο Δρόσου 27 ° F
Υγρασία 96%
Rainfall 0.00 in
Snow Depth Not available.
Υπεριώδης ακτινοβολία (UV) 0 out of 12
Pollen .10 out of 12
Air Quality Not available.
Flu Activity Not available.
SPECI KARR 271214Z AUTO 36005KT 4SM HZ BKN016 OVC038 M02/M05 A3004 RMK AO2 T10221050

More Conditions Fewer Conditions

10-Day Weather Forecast

Almanac

Αστρονομία

Jan. 27, 2015 Rise Set
Actual Time
Civil Twilight
Nautical Twilight
Astronomical Twilight
Moon
Length Of Visible Light
Διάρκεια ημέρας
Tomorrow will be .
, % of the Moon is Illuminated

Today's Extremes

State Highs State Lows

Community

WunderPhotos

Upload Photos

1,790,579 photos uploaded!

WunderBlogs® & News

Nearby

Air Quality

  Air Quality AQ Index Pollutant
Not available.

Snow Depth

Station Depth Elevation

Earthquake Activity

City Distance Mag. Time & Date
Minimum magnitude displayed is 2.5.

Coastal Water Temperatures

Τοποθεσία Θερμοκρασία

Nearby Weather Stations